sensor_id;sensor_type;location;lat;lon;timestamp;P1;durP1;ratioP1;P2;durP2;ratioP2
57341;SDS011;43175;51.002;18.316;2023-08-08T00:00:36;12.40;;;3.40;;
57341;SDS011;43175;51.002;18.316;2023-08-08T00:03:02;11.50;;;3.50;;
57341;SDS011;43175;51.002;18.316;2023-08-08T00:05:28;11.00;;;3.20;;
57341;SDS011;43175;51.002;18.316;2023-08-08T00:07:54;11.80;;;3.20;;
57341;SDS011;43175;51.002;18.316;2023-08-08T00:10:19;11.30;;;3.50;;
57341;SDS011;43175;51.002;18.316;2023-08-08T00:12:45;10.40;;;3.30;;
57341;SDS011;43175;51.002;18.316;2023-08-08T00:15:10;11.10;;;3.30;;
57341;SDS011;43175;51.002;18.316;2023-08-08T00:17:36;9.60;;;3.60;;
57341;SDS011;43175;51.002;18.316;2023-08-08T00:20:02;12.00;;;3.50;;
57341;SDS011;43175;51.002;18.316;2023-08-08T00:22:28;10.80;;;3.50;;
57341;SDS011;43175;51.002;18.316;2023-08-08T00:24:54;10.30;;;3.40;;
57341;SDS011;43175;51.002;18.316;2023-08-08T00:27:19;10.20;;;3.30;;
57341;SDS011;43175;51.002;18.316;2023-08-08T00:29:45;11.20;;;3.50;;
57341;SDS011;43175;51.002;18.316;2023-08-08T00:32:11;11.10;;;3.40;;
57341;SDS011;43175;51.002;18.316;2023-08-08T00:34:36;12.10;;;3.40;;
57341;SDS011;43175;51.002;18.316;2023-08-08T00:37:02;10.40;;;3.60;;
57341;SDS011;43175;51.002;18.316;2023-08-08T00:39:27;11.50;;;3.40;;
57341;SDS011;43175;51.002;18.316;2023-08-08T00:41:53;11.70;;;3.30;;
57341;SDS011;43175;51.002;18.316;2023-08-08T00:44:18;10.50;;;3.20;;
57341;SDS011;43175;51.002;18.316;2023-08-08T00:46:44;10.10;;;3.40;;
57341;SDS011;43175;51.002;18.316;2023-08-08T00:49:09;11.80;;;3.70;;
57341;SDS011;43175;51.002;18.316;2023-08-08T00:51:35;11.30;;;3.40;;
57341;SDS011;43175;51.002;18.316;2023-08-08T00:54:01;12.90;;;3.40;;
57341;SDS011;43175;51.002;18.316;2023-08-08T00:56:27;12.60;;;3.50;;
57341;SDS011;43175;51.002;18.316;2023-08-08T00:58:52;12.50;;;3.50;;
57341;SDS011;43175;51.002;18.316;2023-08-08T01:01:18;11.10;;;3.50;;
57341;SDS011;43175;51.002;18.316;2023-08-08T01:03:44;10.30;;;3.80;;
57341;SDS011;43175;51.002;18.316;2023-08-08T01:06:16;11.80;;;3.60;;
57341;SDS011;43175;51.002;18.316;2023-08-08T01:08:58;11.70;;;3.60;;
57341;SDS011;43175;51.002;18.316;2023-08-08T01:11:27;12.70;;;3.70;;
57341;SDS011;43175;51.002;18.316;2023-08-08T01:13:53;12.80;;;3.90;;
57341;SDS011;43175;51.002;18.316;2023-08-08T01:16:19;13.50;;;3.70;;
57341;SDS011;43175;51.002;18.316;2023-08-08T01:18:46;12.00;;;3.70;;
57341;SDS011;43175;51.002;18.316;2023-08-08T01:21:14;13.20;;;3.50;;
57341;SDS011;43175;51.002;18.316;2023-08-08T01:23:42;11.10;;;3.60;;
57341;SDS011;43175;51.002;18.316;2023-08-08T01:26:11;13.50;;;3.70;;
57341;SDS011;43175;51.002;18.316;2023-08-08T01:28:38;10.80;;;3.70;;
57341;SDS011;43175;51.002;18.316;2023-08-08T01:31:04;12.70;;;3.40;;
57341;SDS011;43175;51.002;18.316;2023-08-08T01:33:30;13.90;;;3.30;;
57341;SDS011;43175;51.002;18.316;2023-08-08T01:35:59;10.50;;;3.30;;
57341;SDS011;43175;51.002;18.316;2023-08-08T01:38:36;11.80;;;3.90;;
57341;SDS011;43175;51.002;18.316;2023-08-08T01:41:04;10.90;;;3.30;;
57341;SDS011;43175;51.002;18.316;2023-08-08T01:43:30;12.00;;;3.60;;
57341;SDS011;43175;51.002;18.316;2023-08-08T01:45:56;9.90;;;3.50;;
57341;SDS011;43175;51.002;18.316;2023-08-08T01:48:22;12.50;;;3.50;;
57341;SDS011;43175;51.002;18.316;2023-08-08T01:50:48;10.90;;;3.40;;
57341;SDS011;43175;51.002;18.316;2023-08-08T01:53:14;11.30;;;3.80;;
57341;SDS011;43175;51.002;18.316;2023-08-08T01:55:39;12.90;;;3.80;;
57341;SDS011;43175;51.002;18.316;2023-08-08T01:58:05;13.30;;;3.60;;
57341;SDS011;43175;51.002;18.316;2023-08-08T02:00:31;11.60;;;3.60;;
57341;SDS011;43175;51.002;18.316;2023-08-08T02:02:56;12.80;;;3.60;;
57341;SDS011;43175;51.002;18.316;2023-08-08T02:05:22;13.30;;;3.90;;
57341;SDS011;43175;51.002;18.316;2023-08-08T02:07:47;13.10;;;3.80;;
57341;SDS011;43175;51.002;18.316;2023-08-08T02:10:13;12.30;;;3.60;;
57341;SDS011;43175;51.002;18.316;2023-08-08T02:12:39;15.70;;;3.60;;
57341;SDS011;43175;51.002;18.316;2023-08-08T02:15:05;11.90;;;3.30;;
57341;SDS011;43175;51.002;18.316;2023-08-08T02:17:31;12.40;;;3.80;;
57341;SDS011;43175;51.002;18.316;2023-08-08T02:19:57;10.90;;;3.60;;
57341;SDS011;43175;51.002;18.316;2023-08-08T02:22:22;10.20;;;3.30;;
57341;SDS011;43175;51.002;18.316;2023-08-08T02:24:48;12.80;;;3.60;;
57341;SDS011;43175;51.002;18.316;2023-08-08T02:27:14;13.40;;;3.00;;
57341;SDS011;43175;51.002;18.316;2023-08-08T02:29:39;9.90;;;3.30;;
57341;SDS011;43175;51.002;18.316;2023-08-08T02:32:05;11.00;;;3.30;;
57341;SDS011;43175;51.002;18.316;2023-08-08T02:34:31;10.40;;;3.40;;
57341;SDS011;43175;51.002;18.316;2023-08-08T02:36:56;10.70;;;3.00;;
57341;SDS011;43175;51.002;18.316;2023-08-08T02:39:22;11.70;;;3.50;;
57341;SDS011;43175;51.002;18.316;2023-08-08T02:41:47;10.60;;;3.70;;
57341;SDS011;43175;51.002;18.316;2023-08-08T02:44:13;9.60;;;3.20;;
57341;SDS011;43175;51.002;18.316;2023-08-08T02:46:38;11.90;;;3.40;;
57341;SDS011;43175;51.002;18.316;2023-08-08T02:49:04;11.70;;;3.40;;
57341;SDS011;43175;51.002;18.316;2023-08-08T02:51:30;9.90;;;3.40;;
57341;SDS011;43175;51.002;18.316;2023-08-08T02:53:55;10.70;;;3.40;;
57341;SDS011;43175;51.002;18.316;2023-08-08T02:56:21;9.90;;;3.40;;
57341;SDS011;43175;51.002;18.316;2023-08-08T02:58:46;11.20;;;3.60;;
57341;SDS011;43175;51.002;18.316;2023-08-08T03:01:12;10.00;;;3.50;;
57341;SDS011;43175;51.002;18.316;2023-08-08T03:03:41;11.30;;;3.50;;
57341;SDS011;43175;51.002;18.316;2023-08-08T03:06:07;9.90;;;3.50;;
57341;SDS011;43175;51.002;18.316;2023-08-08T03:08:32;10.00;;;3.80;;
57341;SDS011;43175;51.002;18.316;2023-08-08T03:10:58;14.10;;;4.00;;
57341;SDS011;43175;51.002;18.316;2023-08-08T03:13:24;10.60;;;3.90;;
57341;SDS011;43175;51.002;18.316;2023-08-08T03:15:49;11.00;;;4.20;;
57341;SDS011;43175;51.002;18.316;2023-08-08T03:18:14;11.60;;;3.80;;
57341;SDS011;43175;51.002;18.316;2023-08-08T03:20:40;11.30;;;4.30;;
57341;SDS011;43175;51.002;18.316;2023-08-08T03:23:05;11.10;;;3.90;;
57341;SDS011;43175;51.002;18.316;2023-08-08T03:25:31;11.10;;;4.10;;
57341;SDS011;43175;51.002;18.316;2023-08-08T03:27:56;12.30;;;4.40;;
57341;SDS011;43175;51.002;18.316;2023-08-08T03:30:21;14.00;;;4.60;;
57341;SDS011;43175;51.002;18.316;2023-08-08T03:32:47;11.30;;;4.40;;
57341;SDS011;43175;51.002;18.316;2023-08-08T03:35:12;12.30;;;4.30;;
57341;SDS011;43175;51.002;18.316;2023-08-08T03:37:38;10.80;;;4.30;;
57341;SDS011;43175;51.002;18.316;2023-08-08T03:40:03;11.60;;;4.00;;
57341;SDS011;43175;51.002;18.316;2023-08-08T03:42:29;13.00;;;4.60;;
57341;SDS011;43175;51.002;18.316;2023-08-08T03:44:55;10.90;;;4.50;;
57341;SDS011;43175;51.002;18.316;2023-08-08T03:47:20;9.80;;;4.40;;
57341;SDS011;43175;51.002;18.316;2023-08-08T03:49:48;12.60;;;4.50;;
57341;SDS011;43175;51.002;18.316;2023-08-08T03:52:14;11.90;;;4.60;;
57341;SDS011;43175;51.002;18.316;2023-08-08T03:54:39;12.40;;;4.50;;
57341;SDS011;43175;51.002;18.316;2023-08-08T03:57:05;12.10;;;4.80;;
57341;SDS011;43175;51.002;18.316;2023-08-08T03:59:30;10.90;;;4.50;;
57341;SDS011;43175;51.002;18.316;2023-08-08T04:01:56;11.00;;;4.90;;
57341;SDS011;43175;51.002;18.316;2023-08-08T04:04:21;10.90;;;4.70;;
57341;SDS011;43175;51.002;18.316;2023-08-08T04:06:47;13.30;;;4.80;;
57341;SDS011;43175;51.002;18.316;2023-08-08T04:09:12;12.60;;;4.70;;
57341;SDS011;43175;51.002;18.316;2023-08-08T04:11:38;12.50;;;5.00;;
57341;SDS011;43175;51.002;18.316;2023-08-08T04:14:03;15.20;;;4.60;;
57341;SDS011;43175;51.002;18.316;2023-08-08T04:16:28;14.60;;;4.70;;
57341;SDS011;43175;51.002;18.316;2023-08-08T04:18:54;12.70;;;5.00;;
57341;SDS011;43175;51.002;18.316;2023-08-08T04:21:19;13.10;;;4.80;;
57341;SDS011;43175;51.002;18.316;2023-08-08T04:23:44;11.80;;;5.00;;
57341;SDS011;43175;51.002;18.316;2023-08-08T04:26:10;11.70;;;4.90;;
57341;SDS011;43175;51.002;18.316;2023-08-08T04:28:35;13.70;;;5.30;;
57341;SDS011;43175;51.002;18.316;2023-08-08T04:31:01;13.00;;;4.80;;
57341;SDS011;43175;51.002;18.316;2023-08-08T04:33:26;11.80;;;5.10;;
57341;SDS011;43175;51.002;18.316;2023-08-08T04:35:52;12.40;;;5.40;;
57341;SDS011;43175;51.002;18.316;2023-08-08T04:38:17;12.30;;;5.30;;
57341;SDS011;43175;51.002;18.316;2023-08-08T04:40:43;12.80;;;5.50;;
57341;SDS011;43175;51.002;18.316;2023-08-08T04:43:08;11.50;;;5.30;;
57341;SDS011;43175;51.002;18.316;2023-08-08T04:45:33;12.20;;;5.20;;
57341;SDS011;43175;51.002;18.316;2023-08-08T04:47:59;12.20;;;5.70;;
57341;SDS011;43175;51.002;18.316;2023-08-08T04:50:25;11.20;;;5.30;;
57341;SDS011;43175;51.002;18.316;2023-08-08T04:52:50;11.40;;;5.20;;
57341;SDS011;43175;51.002;18.316;2023-08-08T04:55:16;14.00;;;5.40;;
57341;SDS011;43175;51.002;18.316;2023-08-08T04:57:42;11.30;;;5.20;;
57341;SDS011;43175;51.002;18.316;2023-08-08T05:00:07;12.10;;;5.10;;
57341;SDS011;43175;51.002;18.316;2023-08-08T05:02:34;13.10;;;5.30;;
57341;SDS011;43175;51.002;18.316;2023-08-08T05:05:00;13.50;;;5.50;;
57341;SDS011;43175;51.002;18.316;2023-08-08T05:07:26;12.60;;;5.10;;
57341;SDS011;43175;51.002;18.316;2023-08-08T05:09:52;10.90;;;4.70;;
57341;SDS011;43175;51.002;18.316;2023-08-08T05:12:17;12.10;;;4.70;;
57341;SDS011;43175;51.002;18.316;2023-08-08T05:14:43;13.00;;;4.80;;
57341;SDS011;43175;51.002;18.316;2023-08-08T05:17:08;10.90;;;4.60;;
57341;SDS011;43175;51.002;18.316;2023-08-08T05:19:34;14.00;;;5.10;;
57341;SDS011;43175;51.002;18.316;2023-08-08T05:22:00;11.40;;;4.60;;
57341;SDS011;43175;51.002;18.316;2023-08-08T05:24:26;13.00;;;4.80;;
57341;SDS011;43175;51.002;18.316;2023-08-08T05:26:52;10.00;;;4.30;;
57341;SDS011;43175;51.002;18.316;2023-08-08T05:29:19;13.50;;;4.90;;
57341;SDS011;43175;51.002;18.316;2023-08-08T05:31:45;13.30;;;4.40;;
57341;SDS011;43175;51.002;18.316;2023-08-08T05:34:12;10.50;;;4.40;;
57341;SDS011;43175;51.002;18.316;2023-08-08T05:36:37;11.10;;;4.40;;
57341;SDS011;43175;51.002;18.316;2023-08-08T05:39:03;11.30;;;4.40;;
57341;SDS011;43175;51.002;18.316;2023-08-08T05:41:29;12.10;;;5.00;;
57341;SDS011;43175;51.002;18.316;2023-08-08T05:43:54;9.90;;;4.20;;
57341;SDS011;43175;51.002;18.316;2023-08-08T05:46:20;11.00;;;4.60;;
57341;SDS011;43175;51.002;18.316;2023-08-08T05:48:45;11.60;;;4.20;;
57341;SDS011;43175;51.002;18.316;2023-08-08T05:51:11;11.40;;;4.40;;
57341;SDS011;43175;51.002;18.316;2023-08-08T05:53:37;12.90;;;4.20;;
57341;SDS011;43175;51.002;18.316;2023-08-08T05:56:03;11.40;;;4.10;;
57341;SDS011;43175;51.002;18.316;2023-08-08T05:58:29;10.80;;;4.10;;
57341;SDS011;43175;51.002;18.316;2023-08-08T06:00:55;11.00;;;3.60;;
57341;SDS011;43175;51.002;18.316;2023-08-08T06:03:20;11.50;;;3.90;;
57341;SDS011;43175;51.002;18.316;2023-08-08T06:05:46;13.70;;;4.10;;
57341;SDS011;43175;51.002;18.316;2023-08-08T06:08:11;9.40;;;3.60;;
57341;SDS011;43175;51.002;18.316;2023-08-08T06:10:38;13.00;;;3.60;;
57341;SDS011;43175;51.002;18.316;2023-08-08T06:13:04;10.00;;;3.70;;
57341;SDS011;43175;51.002;18.316;2023-08-08T06:15:29;9.80;;;3.70;;
57341;SDS011;43175;51.002;18.316;2023-08-08T06:17:55;10.60;;;4.10;;
57341;SDS011;43175;51.002;18.316;2023-08-08T06:20:20;9.70;;;3.50;;
57341;SDS011;43175;51.002;18.316;2023-08-08T06:22:46;9.60;;;3.70;;
57341;SDS011;43175;51.002;18.316;2023-08-08T06:25:12;11.60;;;3.50;;
57341;SDS011;43175;51.002;18.316;2023-08-08T06:27:38;11.90;;;3.90;;
57341;SDS011;43175;51.002;18.316;2023-08-08T06:30:04;9.60;;;3.50;;
57341;SDS011;43175;51.002;18.316;2023-08-08T06:32:30;10.50;;;3.50;;
57341;SDS011;43175;51.002;18.316;2023-08-08T06:34:55;9.50;;;3.90;;
57341;SDS011;43175;51.002;18.316;2023-08-08T06:37:21;11.10;;;4.00;;
57341;SDS011;43175;51.002;18.316;2023-08-08T06:39:46;11.50;;;3.90;;
57341;SDS011;43175;51.002;18.316;2023-08-08T06:42:11;9.30;;;3.60;;
57341;SDS011;43175;51.002;18.316;2023-08-08T06:44:43;10.40;;;3.40;;
57341;SDS011;43175;51.002;18.316;2023-08-08T06:47:10;9.80;;;3.60;;
57341;SDS011;43175;51.002;18.316;2023-08-08T06:49:36;11.30;;;3.90;;
57341;SDS011;43175;51.002;18.316;2023-08-08T06:52:04;11.40;;;3.60;;
57341;SDS011;43175;51.002;18.316;2023-08-08T06:54:30;10.00;;;3.40;;
57341;SDS011;43175;51.002;18.316;2023-08-08T06:56:56;11.70;;;3.20;;
57341;SDS011;43175;51.002;18.316;2023-08-08T06:59:22;10.80;;;3.20;;
57341;SDS011;43175;51.002;18.316;2023-08-08T07:01:49;8.80;;;3.00;;
57341;SDS011;43175;51.002;18.316;2023-08-08T07:04:15;9.10;;;2.90;;
57341;SDS011;43175;51.002;18.316;2023-08-08T07:06:43;8.80;;;2.90;;
57341;SDS011;43175;51.002;18.316;2023-08-08T07:09:09;12.20;;;2.90;;
57341;SDS011;43175;51.002;18.316;2023-08-08T07:11:36;12.40;;;3.30;;
57341;SDS011;43175;51.002;18.316;2023-08-08T07:14:02;11.50;;;3.20;;
57341;SDS011;43175;51.002;18.316;2023-08-08T07:16:28;9.40;;;3.40;;
57341;SDS011;43175;51.002;18.316;2023-08-08T07:18:54;9.70;;;3.00;;
57341;SDS011;43175;51.002;18.316;2023-08-08T07:21:20;10.00;;;3.20;;
57341;SDS011;43175;51.002;18.316;2023-08-08T07:23:46;8.40;;;3.00;;
57341;SDS011;43175;51.002;18.316;2023-08-08T07:26:11;10.50;;;3.00;;
57341;SDS011;43175;51.002;18.316;2023-08-08T07:28:37;8.90;;;3.00;;
57341;SDS011;43175;51.002;18.316;2023-08-08T07:31:03;8.30;;;2.70;;
57341;SDS011;43175;51.002;18.316;2023-08-08T07:33:28;10.40;;;3.00;;
57341;SDS011;43175;51.002;18.316;2023-08-08T07:35:54;9.50;;;2.80;;
57341;SDS011;43175;51.002;18.316;2023-08-08T07:38:19;8.70;;;2.70;;
57341;SDS011;43175;51.002;18.316;2023-08-08T07:40:45;9.00;;;2.90;;
57341;SDS011;43175;51.002;18.316;2023-08-08T07:43:11;9.60;;;2.90;;
57341;SDS011;43175;51.002;18.316;2023-08-08T07:45:37;9.80;;;2.80;;
57341;SDS011;43175;51.002;18.316;2023-08-08T07:48:03;10.60;;;3.70;;
57341;SDS011;43175;51.002;18.316;2023-08-08T07:50:30;10.30;;;3.00;;
57341;SDS011;43175;51.002;18.316;2023-08-08T07:52:56;9.70;;;2.80;;
57341;SDS011;43175;51.002;18.316;2023-08-08T07:55:21;8.60;;;2.70;;
57341;SDS011;43175;51.002;18.316;2023-08-08T07:57:46;8.80;;;2.80;;
57341;SDS011;43175;51.002;18.316;2023-08-08T08:00:13;9.70;;;3.20;;
57341;SDS011;43175;51.002;18.316;2023-08-08T08:02:42;8.70;;;2.70;;
57341;SDS011;43175;51.002;18.316;2023-08-08T08:05:08;8.90;;;2.60;;
57341;SDS011;43175;51.002;18.316;2023-08-08T08:07:35;8.50;;;2.40;;
57341;SDS011;43175;51.002;18.316;2023-08-08T08:10:02;7.90;;;2.50;;
57341;SDS011;43175;51.002;18.316;2023-08-08T08:12:29;8.10;;;2.40;;
57341;SDS011;43175;51.002;18.316;2023-08-08T08:14:56;9.30;;;2.50;;
57341;SDS011;43175;51.002;18.316;2023-08-08T08:17:21;8.00;;;2.40;;
57341;SDS011;43175;51.002;18.316;2023-08-08T08:19:47;8.60;;;2.80;;
57341;SDS011;43175;51.002;18.316;2023-08-08T08:22:12;9.10;;;2.90;;
57341;SDS011;43175;51.002;18.316;2023-08-08T08:24:38;10.20;;;2.80;;
57341;SDS011;43175;51.002;18.316;2023-08-08T08:27:03;8.70;;;2.80;;
57341;SDS011;43175;51.002;18.316;2023-08-08T08:29:29;9.90;;;2.70;;
57341;SDS011;43175;51.002;18.316;2023-08-08T08:31:56;8.40;;;2.90;;
57341;SDS011;43175;51.002;18.316;2023-08-08T08:34:22;8.80;;;3.10;;
57341;SDS011;43175;51.002;18.316;2023-08-08T08:36:47;8.50;;;2.80;;
57341;SDS011;43175;51.002;18.316;2023-08-08T08:39:13;9.10;;;3.10;;
57341;SDS011;43175;51.002;18.316;2023-08-08T08:41:39;9.00;;;2.80;;
57341;SDS011;43175;51.002;18.316;2023-08-08T08:44:04;10.40;;;3.00;;
57341;SDS011;43175;51.002;18.316;2023-08-08T08:46:34;10.40;;;3.10;;
57341;SDS011;43175;51.002;18.316;2023-08-08T08:49:00;10.40;;;3.80;;
57341;SDS011;43175;51.002;18.316;2023-08-08T08:51:28;7.60;;;2.60;;
57341;SDS011;43175;51.002;18.316;2023-08-08T08:53:53;8.30;;;2.80;;
57341;SDS011;43175;51.002;18.316;2023-08-08T08:56:19;8.30;;;2.50;;
57341;SDS011;43175;51.002;18.316;2023-08-08T08:58:45;8.50;;;2.80;;
57341;SDS011;43175;51.002;18.316;2023-08-08T09:01:11;9.90;;;3.00;;
57341;SDS011;43175;51.002;18.316;2023-08-08T09:03:37;8.80;;;3.00;;
57341;SDS011;43175;51.002;18.316;2023-08-08T09:06:03;7.80;;;2.70;;
57341;SDS011;43175;51.002;18.316;2023-08-08T09:08:30;8.30;;;2.80;;
57341;SDS011;43175;51.002;18.316;2023-08-08T09:10:56;8.90;;;2.90;;
57341;SDS011;43175;51.002;18.316;2023-08-08T09:13:22;8.80;;;2.70;;
57341;SDS011;43175;51.002;18.316;2023-08-08T09:15:50;8.40;;;2.80;;
57341;SDS011;43175;51.002;18.316;2023-08-08T09:18:16;9.20;;;2.80;;
57341;SDS011;43175;51.002;18.316;2023-08-08T09:20:46;7.90;;;2.50;;
57341;SDS011;43175;51.002;18.316;2023-08-08T09:23:15;7.90;;;2.50;;
57341;SDS011;43175;51.002;18.316;2023-08-08T09:25:40;7.60;;;2.50;;
57341;SDS011;43175;51.002;18.316;2023-08-08T09:28:06;7.80;;;2.50;;
57341;SDS011;43175;51.002;18.316;2023-08-08T09:30:31;6.70;;;2.30;;
57341;SDS011;43175;51.002;18.316;2023-08-08T09:32:58;8.20;;;2.40;;
57341;SDS011;43175;51.002;18.316;2023-08-08T09:35:24;6.80;;;2.30;;
57341;SDS011;43175;51.002;18.316;2023-08-08T09:37:51;8.30;;;2.90;;
57341;SDS011;43175;51.002;18.316;2023-08-08T09:40:19;8.00;;;2.70;;
57341;SDS011;43175;51.002;18.316;2023-08-08T09:42:46;8.90;;;2.90;;
57341;SDS011;43175;51.002;18.316;2023-08-08T09:45:12;8.10;;;2.80;;
57341;SDS011;43175;51.002;18.316;2023-08-08T09:47:38;9.30;;;2.90;;
57341;SDS011;43175;51.002;18.316;2023-08-08T09:50:04;8.90;;;2.90;;
57341;SDS011;43175;51.002;18.316;2023-08-08T09:52:30;8.00;;;2.90;;
57341;SDS011;43175;51.002;18.316;2023-08-08T09:54:56;7.90;;;2.60;;
57341;SDS011;43175;51.002;18.316;2023-08-08T09:57:22;8.90;;;2.80;;
57341;SDS011;43175;51.002;18.316;2023-08-08T09:59:48;7.80;;;2.50;;
57341;SDS011;43175;51.002;18.316;2023-08-08T10:02:15;9.10;;;2.70;;
57341;SDS011;43175;51.002;18.316;2023-08-08T10:04:41;7.10;;;2.50;;
57341;SDS011;43175;51.002;18.316;2023-08-08T10:07:06;6.50;;;2.20;;
57341;SDS011;43175;51.002;18.316;2023-08-08T10:09:33;8.20;;;2.60;;
57341;SDS011;43175;51.002;18.316;2023-08-08T10:12:00;9.70;;;2.70;;
57341;SDS011;43175;51.002;18.316;2023-08-08T10:14:29;7.90;;;2.70;;
57341;SDS011;43175;51.002;18.316;2023-08-08T10:16:56;7.70;;;2.50;;
57341;SDS011;43175;51.002;18.316;2023-08-08T10:19:22;9.00;;;2.70;;
57341;SDS011;43175;51.002;18.316;2023-08-08T10:21:48;8.60;;;2.50;;
57341;SDS011;43175;51.002;18.316;2023-08-08T10:24:21;7.30;;;2.60;;
57341;SDS011;43175;51.002;18.316;2023-08-08T10:26:51;8.10;;;2.60;;
57341;SDS011;43175;51.002;18.316;2023-08-08T10:29:18;8.40;;;2.50;;
57341;SDS011;43175;51.002;18.316;2023-08-08T10:31:50;7.30;;;2.50;;
57341;SDS011;43175;51.002;18.316;2023-08-08T10:34:19;7.70;;;2.50;;
57341;SDS011;43175;51.002;18.316;2023-08-08T10:36:49;7.50;;;2.40;;
57341;SDS011;43175;51.002;18.316;2023-08-08T10:39:18;8.50;;;2.70;;
57341;SDS011;43175;51.002;18.316;2023-08-08T10:41:48;7.40;;;2.40;;
57341;SDS011;43175;51.002;18.316;2023-08-08T10:44:24;10.10;;;2.50;;
57341;SDS011;43175;51.002;18.316;2023-08-08T10:46:51;6.70;;;2.30;;
57341;SDS011;43175;51.002;18.316;2023-08-08T10:49:18;7.40;;;2.40;;
57341;SDS011;43175;51.002;18.316;2023-08-08T10:51:45;7.70;;;2.70;;
57341;SDS011;43175;51.002;18.316;2023-08-08T10:54:16;8.40;;;2.60;;
57341;SDS011;43175;51.002;18.316;2023-08-08T10:56:49;8.10;;;2.60;;
57341;SDS011;43175;51.002;18.316;2023-08-08T10:59:19;7.80;;;2.50;;
57341;SDS011;43175;51.002;18.316;2023-08-08T11:01:47;8.30;;;2.50;;
57341;SDS011;43175;51.002;18.316;2023-08-08T11:04:15;8.60;;;2.50;;
57341;SDS011;43175;51.002;18.316;2023-08-08T11:06:41;8.50;;;2.60;;
57341;SDS011;43175;51.002;18.316;2023-08-08T11:09:07;6.90;;;2.30;;
57341;SDS011;43175;51.002;18.316;2023-08-08T11:11:39;7.70;;;2.30;;
57341;SDS011;43175;51.002;18.316;2023-08-08T11:14:09;6.80;;;2.30;;
57341;SDS011;43175;51.002;18.316;2023-08-08T11:16:39;7.20;;;2.30;;
57341;SDS011;43175;51.002;18.316;2023-08-08T11:19:05;6.80;;;2.30;;
57341;SDS011;43175;51.002;18.316;2023-08-08T11:21:33;7.10;;;2.40;;
57341;SDS011;43175;51.002;18.316;2023-08-08T11:24:00;7.50;;;2.30;;
57341;SDS011;43175;51.002;18.316;2023-08-08T11:26:26;9.50;;;2.70;;
57341;SDS011;43175;51.002;18.316;2023-08-08T11:28:52;11.10;;;2.30;;
57341;SDS011;43175;51.002;18.316;2023-08-08T11:31:19;8.40;;;2.40;;
57341;SDS011;43175;51.002;18.316;2023-08-08T11:33:47;7.70;;;2.40;;
57341;SDS011;43175;51.002;18.316;2023-08-08T11:36:14;7.50;;;2.30;;
57341;SDS011;43175;51.002;18.316;2023-08-08T11:38:40;7.60;;;2.50;;
57341;SDS011;43175;51.002;18.316;2023-08-08T11:41:09;7.80;;;2.40;;
57341;SDS011;43175;51.002;18.316;2023-08-08T11:43:36;8.90;;;2.40;;
57341;SDS011;43175;51.002;18.316;2023-08-08T11:46:03;7.30;;;2.20;;
57341;SDS011;43175;51.002;18.316;2023-08-08T11:48:28;6.80;;;2.20;;
57341;SDS011;43175;51.002;18.316;2023-08-08T11:50:57;6.80;;;2.20;;
57341;SDS011;43175;51.002;18.316;2023-08-08T11:53:23;6.80;;;2.30;;
57341;SDS011;43175;51.002;18.316;2023-08-08T11:55:48;6.90;;;2.20;;
57341;SDS011;43175;51.002;18.316;2023-08-08T11:58:14;8.70;;;2.30;;
57341;SDS011;43175;51.002;18.316;2023-08-08T12:00:39;6.80;;;2.20;;
57341;SDS011;43175;51.002;18.316;2023-08-08T12:03:08;6.60;;;2.20;;
57341;SDS011;43175;51.002;18.316;2023-08-08T12:05:37;7.30;;;2.10;;
57341;SDS011;43175;51.002;18.316;2023-08-08T12:08:06;6.80;;;2.20;;
57341;SDS011;43175;51.002;18.316;2023-08-08T12:10:32;7.70;;;2.30;;
57341;SDS011;43175;51.002;18.316;2023-08-08T12:12:58;5.80;;;2.00;;
57341;SDS011;43175;51.002;18.316;2023-08-08T12:15:35;9.30;;;2.40;;
57341;SDS011;43175;51.002;18.316;2023-08-08T12:18:01;7.10;;;2.30;;
57341;SDS011;43175;51.002;18.316;2023-08-08T12:20:28;7.00;;;2.20;;
57341;SDS011;43175;51.002;18.316;2023-08-08T12:22:57;6.70;;;2.10;;
57341;SDS011;43175;51.002;18.316;2023-08-08T12:25:23;7.20;;;2.00;;
57341;SDS011;43175;51.002;18.316;2023-08-08T12:27:49;6.10;;;2.30;;
57341;SDS011;43175;51.002;18.316;2023-08-08T12:30:14;6.90;;;2.20;;
57341;SDS011;43175;51.002;18.316;2023-08-08T12:32:40;6.30;;;2.10;;
57341;SDS011;43175;51.002;18.316;2023-08-08T12:35:06;6.10;;;2.10;;
57341;SDS011;43175;51.002;18.316;2023-08-08T12:37:33;6.30;;;2.00;;
57341;SDS011;43175;51.002;18.316;2023-08-08T12:39:58;5.70;;;2.00;;
57341;SDS011;43175;51.002;18.316;2023-08-08T12:42:24;8.50;;;2.40;;
57341;SDS011;43175;51.002;18.316;2023-08-08T12:44:50;7.70;;;2.30;;
57341;SDS011;43175;51.002;18.316;2023-08-08T12:47:19;7.40;;;2.10;;
57341;SDS011;43175;51.002;18.316;2023-08-08T12:49:48;5.90;;;2.10;;
57341;SDS011;43175;51.002;18.316;2023-08-08T12:52:13;8.60;;;2.20;;
57341;SDS011;43175;51.002;18.316;2023-08-08T12:54:40;7.50;;;2.10;;
57341;SDS011;43175;51.002;18.316;2023-08-08T12:57:05;11.10;;;2.40;;
57341;SDS011;43175;51.002;18.316;2023-08-08T12:59:31;7.40;;;2.20;;
57341;SDS011;43175;51.002;18.316;2023-08-08T13:01:56;7.00;;;2.20;;
57341;SDS011;43175;51.002;18.316;2023-08-08T13:04:22;8.10;;;2.40;;
57341;SDS011;43175;51.002;18.316;2023-08-08T13:06:47;8.40;;;2.40;;
57341;SDS011;43175;51.002;18.316;2023-08-08T13:09:14;9.00;;;2.60;;
57341;SDS011;43175;51.002;18.316;2023-08-08T13:11:40;8.10;;;2.60;;
57341;SDS011;43175;51.002;18.316;2023-08-08T13:14:06;7.90;;;2.60;;
57341;SDS011;43175;51.002;18.316;2023-08-08T13:16:32;8.20;;;2.30;;
57341;SDS011;43175;51.002;18.316;2023-08-08T13:18:58;7.90;;;2.50;;
57341;SDS011;43175;51.002;18.316;2023-08-08T13:21:23;8.10;;;2.40;;
57341;SDS011;43175;51.002;18.316;2023-08-08T13:23:49;8.20;;;2.40;;
57341;SDS011;43175;51.002;18.316;2023-08-08T13:26:14;7.20;;;2.20;;
57341;SDS011;43175;51.002;18.316;2023-08-08T13:28:40;6.80;;;2.30;;
57341;SDS011;43175;51.002;18.316;2023-08-08T13:31:06;8.70;;;2.40;;
57341;SDS011;43175;51.002;18.316;2023-08-08T13:33:32;7.30;;;2.30;;
57341;SDS011;43175;51.002;18.316;2023-08-08T13:35:59;8.20;;;2.40;;
57341;SDS011;43175;51.002;18.316;2023-08-08T13:38:25;8.60;;;2.30;;
57341;SDS011;43175;51.002;18.316;2023-08-08T13:40:51;7.50;;;2.40;;
57341;SDS011;43175;51.002;18.316;2023-08-08T13:43:16;7.10;;;2.20;;
57341;SDS011;43175;51.002;18.316;2023-08-08T13:45:42;7.70;;;2.50;;
57341;SDS011;43175;51.002;18.316;2023-08-08T13:48:07;7.70;;;2.50;;
57341;SDS011;43175;51.002;18.316;2023-08-08T13:50:32;10.30;;;2.50;;
57341;SDS011;43175;51.002;18.316;2023-08-08T13:52:58;8.00;;;2.30;;
57341;SDS011;43175;51.002;18.316;2023-08-08T13:55:23;7.70;;;2.30;;
57341;SDS011;43175;51.002;18.316;2023-08-08T13:57:49;7.60;;;2.50;;
57341;SDS011;43175;51.002;18.316;2023-08-08T14:00:14;7.70;;;2.30;;
57341;SDS011;43175;51.002;18.316;2023-08-08T14:02:40;7.40;;;2.40;;
57341;SDS011;43175;51.002;18.316;2023-08-08T14:05:06;7.50;;;2.40;;
57341;SDS011;43175;51.002;18.316;2023-08-08T14:07:32;6.50;;;2.30;;
57341;SDS011;43175;51.002;18.316;2023-08-08T14:09:59;7.70;;;2.50;;
57341;SDS011;43175;51.002;18.316;2023-08-08T14:12:24;8.60;;;2.50;;
57341;SDS011;43175;51.002;18.316;2023-08-08T14:14:50;6.30;;;2.10;;
57341;SDS011;43175;51.002;18.316;2023-08-08T14:17:15;8.70;;;2.70;;
57341;SDS011;43175;51.002;18.316;2023-08-08T14:19:41;7.90;;;2.40;;
57341;SDS011;43175;51.002;18.316;2023-08-08T14:22:06;9.10;;;2.50;;